Terminal Aerodrome Forecast
Issued by NWS

Home | Current Version | Previous Version | Text Only | Print | Product List | Glossary On
Versions: 1 2 3 4 5 6 7 8 9 10 11 12 13 14 15 16 17 18 19 20 21
000
FTUS44 KBMX 231739
TAFMGM
TAF
KMGM 231739Z 2318/2418 27008KT P6SM BKN010 BKN025
     FM232000 28011KT P6SM SCT020 BKN050
     FM240400 30010KT P6SM OVC015
     FM240900 30008KT 5SM BR OVC008=

USA.gov is the U.S. government's official web portal to all federal, state and local government web resources and services.